LEBB/BIO METAR and TAF weather

Enter ICAO airport designator
Station Type Date Time Source
LEBB METAR 2019/04/25 15:30 UTC NOAA

LEBB 251530Z 24013G30KT 170V290 9999 FEW030TCU 19/03 Q1006 NOSIG


Station Type Date Time Source
LEBB Decoded METAR 2019/04/25 15:30 UTC NOAA

Bilbao / Sondica, Spain (LEBB) 43-18N 002-56W 37M
Apr 25, 2019 - 11:30 AM EDT / 2019.04.25 1530 UTC
Wind: from the WSW (240 degrees) at 15 MPH (13 KT) gusting to 35 MPH (30 KT) (direction variable):0
Visibility: greater than 7 mile(s):0
Sky conditions: mostly clear
Weather: Towering cumulus clouds observed
Temperature: 66 F (19 C)
Dew Point: 37 F (3 C)
Relative Humidity: 34%
Pressure (altimeter): 29.71 in. Hg (1006 hPa)
ob: LEBB 251530Z 24013G30KT 170V290 9999 FEW030TCU 19/03 Q1006 NOSIG
cycle: 15

Station Type Date Time Source
LEBB TAF 2019/04/25 12:27 UTC NOAA

TAF LEBB 251100Z 2512/2612 21009KT 9999 SCT040 TX17/2515Z TN10/2605Z
TEMPO 2512/2521 25015G30KT SCT030TCU PROB40
TEMPO 2521/2607 SHRA TS SCT020TCU SCT030CB
BECMG 2608/2611 28012KT
TEMPO 2608/2612 27015G25KT

Example: see airport list